AAL2417 KDFW-MMMX
Flight info
| Callsign | AAL2417 |
|---|---|
| Flight time | 2h 15m |
| Altitude | 37000 |
| Route | NELYN6 HOARY DCT BRO/N0456F380 DCT MAM UJ59 MAPIL/N0454F390 UJ59 TAM/N0454F380 UT100 ENAGA ENAGA3A |
| Aircraft | B38M/M-VGDW/C |
Departure
| Time | 2026-05-08 00:45 |
|---|---|
| Airport | Dallas Fort Worth International Airport (KDFW) |
Arrival
| Time | 2026-05-08 03:01 |
|---|---|
| Airport | Mexico City Benito Juárez International Airport (MMMX) |
| Time | Latitude | Longitude | Altitude | Speed | Heading |
|---|---|---|---|---|---|
| 2026-05-08 00:00 | 32.90007 | -97.04310 | 599 ft | 0 kts | 189° |
| 2026-05-08 00:24 | 32.90014 | -97.04309 | 599 ft | 2 kts | 189° |
| 2026-05-08 00:24 | 32.90025 | -97.04307 | 599 ft | 2 kts | 189° |
| 2026-05-08 00:24 | 32.90036 | -97.04305 | 599 ft | 2 kts | 189° |
| 2026-05-08 00:25 | 32.90047 | -97.04302 | 599 ft | 2 kts | 172° |
| 2026-05-08 00:25 | 32.90058 | -97.04305 | 599 ft | 2 kts | 164° |
| 2026-05-08 00:25 | 32.90069 | -97.04309 | 599 ft | 2 kts | 178° |
| 2026-05-08 00:25 | 32.90080 | -97.04309 | 599 ft | 2 kts | 180° |
| 2026-05-08 00:26 | 32.90088 | -97.04309 | 599 ft | 0 kts | 179° |
| 2026-05-08 00:36 | 32.90085 | -97.04311 | 599 ft | 1 kts | 194° |
| 2026-05-08 00:36 | 32.90080 | -97.04317 | 599 ft | 1 kts | 232° |
| 2026-05-08 00:36 | 32.90080 | -97.04328 | 599 ft | 1 kts | 278° |
| 2026-05-08 00:36 | 32.90087 | -97.04344 | 599 ft | 4 kts | 297° |
| 2026-05-08 00:37 | 32.90107 | -97.04389 | 599 ft | 8 kts | 297° |
| 2026-05-08 00:37 | 32.90131 | -97.04459 | 599 ft | 8 kts | 283° |
| 2026-05-08 00:37 | 32.90133 | -97.04527 | 599 ft | 9 kts | 271° |
| 2026-05-08 00:38 | 32.90135 | -97.04684 | 599 ft | 10 kts | 271° |
| 2026-05-08 00:38 | 32.90155 | -97.04749 | 599 ft | 7 kts | 318° |
| 2026-05-08 00:38 | 32.90199 | -97.04765 | 599 ft | 7 kts | 349° |
| 2026-05-08 00:38 | 32.90247 | -97.04766 | 599 ft | 8 kts | 1° |
| 2026-05-08 00:39 | 32.90307 | -97.04766 | 599 ft | 8 kts | 349° |
| 2026-05-08 00:39 | 32.90333 | -97.04805 | 599 ft | 5 kts | 282° |
| 2026-05-08 00:39 | 32.90336 | -97.04856 | 599 ft | 7 kts | 275° |
| 2026-05-08 00:39 | 32.90361 | -97.04879 | 599 ft | 5 kts | 342° |
| 2026-05-08 00:40 | 32.90410 | -97.04885 | 599 ft | 9 kts | 0° |
| 2026-05-08 00:40 | 32.90493 | -97.04884 | 599 ft | 14 kts | 0° |
| 2026-05-08 00:40 | 32.90606 | -97.04883 | 599 ft | 19 kts | 0° |
| 2026-05-08 00:40 | 32.90754 | -97.04884 | 599 ft | 23 kts | 0° |
| 2026-05-08 00:41 | 32.90917 | -97.04883 | 599 ft | 24 kts | 0° |
| 2026-05-08 00:41 | 32.91084 | -97.04881 | 599 ft | 25 kts | 0° |
| 2026-05-08 00:41 | 32.91255 | -97.04879 | 599 ft | 24 kts | 360° |
| 2026-05-08 00:41 | 32.91401 | -97.04895 | 599 ft | 16 kts | 321° |
| 2026-05-08 00:42 | 32.91419 | -97.04951 | 599 ft | 0 kts | 272° |
| 2026-05-08 00:42 | 32.91419 | -97.04954 | 599 ft | 1 kts | 272° |
| 2026-05-08 00:43 | 32.91419 | -97.04963 | 599 ft | 0 kts | 272° |
| 2026-05-08 00:43 | 32.91419 | -97.04968 | 599 ft | 3 kts | 272° |
| 2026-05-08 00:43 | 32.91421 | -97.05024 | 599 ft | 11 kts | 272° |
| 2026-05-08 00:44 | 32.91402 | -97.05073 | 599 ft | 0 kts | 184° |
| 2026-05-08 00:44 | 32.91400 | -97.05073 | 599 ft | 2 kts | 182° |
| 2026-05-08 00:44 | 32.91183 | -97.05077 | 599 ft | 67 kts | 180° |
| 2026-05-08 00:44 | 32.90507 | -97.05077 | 618 ft | 126 kts | 180° |
| 2026-05-08 00:45 | 32.89551 | -97.05069 | 856 ft | 154 kts | 179° |
| 2026-05-08 00:45 | 32.88521 | -97.05043 | 1751 ft | 141 kts | 178° |
| 2026-05-08 00:45 | 32.87507 | -97.05042 | 2163 ft | 157 kts | 180° |
| 2026-05-08 00:45 | 32.86356 | -97.05098 | 2348 ft | 175 kts | 181° |
| 2026-05-08 00:46 | 32.85066 | -97.05142 | 2484 ft | 194 kts | 181° |
| 2026-05-08 00:46 | 32.83659 | -97.05171 | 2632 ft | 210 kts | 180° |
| 2026-05-08 00:46 | 32.82153 | -97.05198 | 2744 ft | 225 kts | 180° |
| 2026-05-08 00:46 | 32.80539 | -97.05230 | 2840 ft | 239 kts | 180° |
| 2026-05-08 00:47 | 32.78835 | -97.05265 | 3342 ft | 251 kts | 180° |
| 2026-05-08 00:47 | 32.77095 | -97.05300 | 4022 ft | 255 kts | 180° |
| 2026-05-08 00:47 | 32.75301 | -97.05336 | 4703 ft | 260 kts | 180° |
| 2026-05-08 00:47 | 32.73473 | -97.05373 | 5383 ft | 263 kts | 182° |
| 2026-05-08 00:48 | 32.71635 | -97.05410 | 6125 ft | 265 kts | 183° |
| 2026-05-08 00:48 | 32.69850 | -97.05693 | 6821 ft | 264 kts | 197° |
| 2026-05-08 00:48 | 32.68067 | -97.06257 | 7385 ft | 270 kts | 198° |
| 2026-05-08 00:48 | 32.66255 | -97.06847 | 8054 ft | 273 kts | 197° |
| 2026-05-08 00:49 | 32.64430 | -97.07419 | 8761 ft | 275 kts | 197° |
| 2026-05-08 00:49 | 32.62571 | -97.07993 | 9484 ft | 276 kts | 198° |
| 2026-05-08 00:49 | 32.60716 | -97.08570 | 10189 ft | 278 kts | 198° |
| 2026-05-08 00:49 | 32.58841 | -97.09159 | 10644 ft | 288 kts | 199° |
| 2026-05-08 00:50 | 32.56896 | -97.09769 | 10948 ft | 302 kts | 199° |
| 2026-05-08 00:50 | 32.54843 | -97.10409 | 11308 ft | 314 kts | 199° |
| 2026-05-08 00:50 | 32.52719 | -97.11067 | 11788 ft | 321 kts | 199° |
| 2026-05-08 00:50 | 32.50592 | -97.11729 | 12301 ft | 327 kts | 199° |
| 2026-05-08 00:51 | 32.48401 | -97.12412 | 12847 ft | 332 kts | 200° |
| 2026-05-08 00:51 | 32.46197 | -97.13098 | 13393 ft | 336 kts | 200° |
| 2026-05-08 00:51 | 32.43980 | -97.13787 | 13925 ft | 340 kts | 200° |
| 2026-05-08 00:51 | 32.41725 | -97.14488 | 14419 ft | 343 kts | 200° |
| 2026-05-08 00:52 | 32.39414 | -97.15205 | 14956 ft | 346 kts | 200° |
| 2026-05-08 00:52 | 32.37077 | -97.15930 | 15516 ft | 348 kts | 200° |
| 2026-05-08 00:52 | 32.34750 | -97.16652 | 16047 ft | 350 kts | 200° |
| 2026-05-08 00:52 | 32.32396 | -97.17383 | 16576 ft | 352 kts | 200° |
| 2026-05-08 00:53 | 32.30095 | -97.18097 | 17157 ft | 354 kts | 200° |
| 2026-05-08 00:53 | 32.27785 | -97.18701 | 17689 ft | 360 kts | 193° |
| 2026-05-08 00:53 | 32.25375 | -97.19019 | 18215 ft | 362 kts | 192° |
| 2026-05-08 00:53 | 32.22875 | -97.19341 | 18680 ft | 364 kts | 192° |
| 2026-05-08 00:54 | 32.20374 | -97.19678 | 19140 ft | 366 kts | 193° |
| 2026-05-08 00:54 | 32.17855 | -97.20023 | 19594 ft | 369 kts | 193° |
| 2026-05-08 00:54 | 32.15339 | -97.20360 | 20040 ft | 371 kts | 193° |
| 2026-05-08 00:54 | 32.12805 | -97.20697 | 20442 ft | 375 kts | 194° |
| 2026-05-08 00:55 | 32.10221 | -97.21043 | 20854 ft | 378 kts | 194° |
| 2026-05-08 00:55 | 32.07612 | -97.21393 | 21277 ft | 382 kts | 194° |
| 2026-05-08 00:55 | 32.04981 | -97.21745 | 21700 ft | 384 kts | 194° |
| 2026-05-08 00:55 | 32.02311 | -97.22101 | 22149 ft | 387 kts | 195° |
| 2026-05-08 00:56 | 31.99624 | -97.22459 | 22574 ft | 390 kts | 195° |
| 2026-05-08 00:56 | 31.96922 | -97.22820 | 23013 ft | 392 kts | 195° |
| 2026-05-08 00:56 | 31.94208 | -97.23182 | 23450 ft | 394 kts | 195° |
| 2026-05-08 00:56 | 31.91468 | -97.23547 | 23830 ft | 397 kts | 195° |
| 2026-05-08 00:57 | 31.88721 | -97.23913 | 24204 ft | 398 kts | 195° |
| 2026-05-08 00:57 | 31.85960 | -97.24280 | 24568 ft | 399 kts | 194° |
| 2026-05-08 00:57 | 31.83205 | -97.24646 | 24987 ft | 399 kts | 194° |
| 2026-05-08 00:57 | 31.80438 | -97.25014 | 25410 ft | 400 kts | 194° |
| 2026-05-08 00:58 | 31.77671 | -97.25382 | 25818 ft | 400 kts | 194° |
| 2026-05-08 00:58 | 31.74905 | -97.25750 | 26218 ft | 400 kts | 194° |
| 2026-05-08 00:58 | 31.72143 | -97.26116 | 26600 ft | 401 kts | 194° |
| 2026-05-08 00:58 | 31.69356 | -97.26486 | 26977 ft | 402 kts | 194° |
| 2026-05-08 00:59 | 31.66609 | -97.26983 | 27354 ft | 396 kts | 201° |
| 2026-05-08 00:59 | 31.64053 | -97.27923 | 27712 ft | 390 kts | 208° |
| 2026-05-08 00:59 | 31.61543 | -97.29117 | 28074 ft | 391 kts | 208° |
| 2026-05-08 00:59 | 31.59033 | -97.30300 | 28408 ft | 392 kts | 208° |
| 2026-05-08 01:00 | 31.56562 | -97.31458 | 28743 ft | 394 kts | 208° |
| 2026-05-08 01:00 | 31.53804 | -97.32758 | 29118 ft | 395 kts | 208° |
| 2026-05-08 01:00 | 31.51527 | -97.33833 | 29421 ft | 396 kts | 208° |
| 2026-05-08 01:00 | 31.49056 | -97.34998 | 29744 ft | 398 kts | 208° |
| 2026-05-08 01:01 | 31.46533 | -97.36183 | 30073 ft | 399 kts | 208° |
| 2026-05-08 01:01 | 31.43903 | -97.37419 | 30371 ft | 401 kts | 208° |
| 2026-05-08 01:01 | 31.41330 | -97.38629 | 30644 ft | 403 kts | 208° |
| 2026-05-08 01:01 | 31.38728 | -97.39851 | 30913 ft | 405 kts | 208° |
| 2026-05-08 01:02 | 31.36111 | -97.41079 | 31188 ft | 406 kts | 208° |
| 2026-05-08 01:02 | 31.33498 | -97.42304 | 31469 ft | 408 kts | 208° |
| 2026-05-08 01:02 | 31.30930 | -97.43508 | 31749 ft | 410 kts | 208° |
| 2026-05-08 01:02 | 31.28258 | -97.44760 | 32004 ft | 411 kts | 208° |
| 2026-05-08 01:03 | 31.25626 | -97.45992 | 32281 ft | 412 kts | 208° |
| 2026-05-08 01:03 | 31.23145 | -97.47153 | 32537 ft | 414 kts | 209° |
| 2026-05-08 01:03 | 31.20468 | -97.48405 | 32808 ft | 415 kts | 209° |
| 2026-05-08 01:03 | 31.17810 | -97.49647 | 33076 ft | 417 kts | 209° |
| 2026-05-08 01:04 | 31.15156 | -97.50885 | 33447 ft | 415 kts | 209° |
| 2026-05-08 01:04 | 31.12512 | -97.52118 | 33828 ft | 414 kts | 209° |
| 2026-05-08 01:04 | 31.10056 | -97.53264 | 34176 ft | 413 kts | 209° |
| 2026-05-08 01:04 | 31.07465 | -97.54471 | 34505 ft | 411 kts | 209° |
| 2026-05-08 01:05 | 31.04825 | -97.55702 | 34843 ft | 409 kts | 210° |
| 2026-05-08 01:05 | 31.02182 | -97.56933 | 35195 ft | 408 kts | 210° |
| 2026-05-08 01:05 | 30.99564 | -97.58151 | 35498 ft | 407 kts | 210° |
| 2026-05-08 01:05 | 30.96976 | -97.59355 | 35810 ft | 406 kts | 210° |
| 2026-05-08 01:06 | 30.94403 | -97.60551 | 36128 ft | 404 kts | 210° |
| 2026-05-08 01:06 | 30.91797 | -97.61761 | 36464 ft | 403 kts | 210° |
| 2026-05-08 01:06 | 30.89200 | -97.62967 | 36783 ft | 401 kts | 210° |
| 2026-05-08 01:06 | 30.86611 | -97.64169 | 37035 ft | 400 kts | 210° |
| 2026-05-08 01:07 | 30.84033 | -97.65362 | 37047 ft | 396 kts | 210° |
| 2026-05-08 01:07 | 30.79089 | -97.67654 | 37041 ft | 392 kts | 210° |
| 2026-05-08 01:08 | 30.74103 | -97.69963 | 37043 ft | 390 kts | 210° |
| 2026-05-08 01:08 | 30.69112 | -97.72271 | 37054 ft | 390 kts | 210° |
| 2026-05-08 01:09 | 30.64058 | -97.74604 | 37049 ft | 390 kts | 210° |
| 2026-05-08 01:09 | 30.58873 | -97.76598 | 37062 ft | 401 kts | 201° |
| 2026-05-08 01:10 | 30.53240 | -97.77119 | 37064 ft | 421 kts | 188° |
| 2026-05-08 01:10 | 30.47371 | -97.76594 | 37061 ft | 424 kts | 187° |
| 2026-05-08 01:11 | 30.41497 | -97.76075 | 37052 ft | 424 kts | 187° |
| 2026-05-08 01:11 | 30.35616 | -97.75545 | 37050 ft | 424 kts | 187° |
| 2026-05-08 01:12 | 30.29746 | -97.75021 | 37051 ft | 424 kts | 187° |
| 2026-05-08 01:12 | 30.23884 | -97.74497 | 37051 ft | 424 kts | 187° |
| 2026-05-08 01:13 | 30.18009 | -97.73973 | 37018 ft | 424 kts | 187° |
| 2026-05-08 01:13 | 30.12146 | -97.73451 | 37006 ft | 425 kts | 187° |
| 2026-05-08 01:14 | 30.06289 | -97.72928 | 37011 ft | 425 kts | 187° |
| 2026-05-08 01:14 | 30.00412 | -97.72406 | 37015 ft | 425 kts | 187° |
| 2026-05-08 01:15 | 29.94551 | -97.71885 | 37012 ft | 425 kts | 187° |
| 2026-05-08 01:15 | 29.88683 | -97.71365 | 36986 ft | 425 kts | 187° |
| 2026-05-08 01:16 | 29.83796 | -97.70932 | 37013 ft | 425 kts | 186° |
| 2026-05-08 01:16 | 29.77905 | -97.70410 | 37013 ft | 426 kts | 186° |
| 2026-05-08 01:17 | 29.72015 | -97.69890 | 37014 ft | 426 kts | 186° |
| 2026-05-08 01:17 | 29.66143 | -97.69371 | 36980 ft | 426 kts | 186° |
| 2026-05-08 01:18 | 29.60293 | -97.68855 | 36952 ft | 426 kts | 186° |
| 2026-05-08 01:18 | 29.54373 | -97.68334 | 36979 ft | 426 kts | 186° |
| 2026-05-08 01:19 | 29.48472 | -97.67814 | 37006 ft | 426 kts | 186° |
| 2026-05-08 01:19 | 29.42582 | -97.67297 | 37003 ft | 426 kts | 186° |
| 2026-05-08 01:20 | 29.36699 | -97.66780 | 37001 ft | 426 kts | 186° |
| 2026-05-08 01:20 | 29.30829 | -97.66265 | 36976 ft | 426 kts | 186° |
| 2026-05-08 01:21 | 29.24900 | -97.65747 | 36992 ft | 428 kts | 186° |
| 2026-05-08 01:21 | 29.18967 | -97.65226 | 36992 ft | 428 kts | 186° |
| 2026-05-08 01:22 | 29.13046 | -97.64710 | 36995 ft | 428 kts | 186° |
| 2026-05-08 01:22 | 29.07117 | -97.64191 | 36995 ft | 428 kts | 186° |
| 2026-05-08 01:23 | 29.01188 | -97.63675 | 37000 ft | 428 kts | 185° |
| 2026-05-08 01:23 | 28.95279 | -97.63160 | 36989 ft | 429 kts | 186° |
| 2026-05-08 01:24 | 28.89333 | -97.62643 | 36991 ft | 429 kts | 186° |
| 2026-05-08 01:24 | 28.83398 | -97.62127 | 36988 ft | 428 kts | 186° |
| 2026-05-08 01:25 | 28.77458 | -97.61612 | 36987 ft | 429 kts | 186° |
| 2026-05-08 01:25 | 28.71500 | -97.61096 | 36979 ft | 430 kts | 185° |
| 2026-05-08 01:26 | 28.65524 | -97.60577 | 36977 ft | 431 kts | 185° |
| 2026-05-08 01:26 | 28.59543 | -97.60060 | 36985 ft | 431 kts | 185° |
| 2026-05-08 01:27 | 28.53571 | -97.59545 | 36989 ft | 431 kts | 185° |
| 2026-05-08 01:27 | 28.47583 | -97.59028 | 36996 ft | 431 kts | 185° |
| 2026-05-08 01:28 | 28.41608 | -97.58514 | 36996 ft | 434 kts | 185° |
| 2026-05-08 01:28 | 28.35586 | -97.57994 | 36991 ft | 434 kts | 185° |
| 2026-05-08 01:29 | 28.29586 | -97.57479 | 36989 ft | 434 kts | 185° |
| 2026-05-08 01:29 | 28.23571 | -97.56962 | 36986 ft | 434 kts | 185° |
| 2026-05-08 01:30 | 28.17587 | -97.56448 | 36980 ft | 434 kts | 185° |
| 2026-05-08 01:30 | 28.11556 | -97.55932 | 36978 ft | 436 kts | 184° |
| 2026-05-08 01:31 | 28.05630 | -97.55423 | 36981 ft | 436 kts | 184° |
| 2026-05-08 01:31 | 27.99577 | -97.54907 | 36984 ft | 436 kts | 184° |
| 2026-05-08 01:32 | 27.93612 | -97.54397 | 36991 ft | 436 kts | 184° |
| 2026-05-08 01:32 | 27.87557 | -97.53880 | 36997 ft | 436 kts | 184° |
| 2026-05-08 01:33 | 27.81490 | -97.53364 | 36985 ft | 437 kts | 184° |
| 2026-05-08 01:33 | 27.75481 | -97.52851 | 36991 ft | 438 kts | 184° |
| 2026-05-08 01:34 | 27.69579 | -97.52350 | 36990 ft | 438 kts | 184° |
| 2026-05-08 01:34 | 27.63644 | -97.51845 | 36984 ft | 438 kts | 184° |
| 2026-05-08 01:35 | 27.57708 | -97.51342 | 36979 ft | 438 kts | 184° |
| 2026-05-08 01:35 | 27.51708 | -97.50833 | 36974 ft | 438 kts | 184° |
| 2026-05-08 01:36 | 27.45629 | -97.50318 | 36974 ft | 438 kts | 184° |
| 2026-05-08 01:36 | 27.39561 | -97.49804 | 36964 ft | 436 kts | 184° |
| 2026-05-08 01:37 | 27.33506 | -97.49294 | 36961 ft | 436 kts | 184° |
| 2026-05-08 01:37 | 27.27513 | -97.48788 | 36959 ft | 435 kts | 184° |
| 2026-05-08 01:38 | 27.21499 | -97.48282 | 36968 ft | 439 kts | 184° |
| 2026-05-08 01:38 | 27.15423 | -97.47768 | 36963 ft | 439 kts | 184° |
| 2026-05-08 01:39 | 27.09345 | -97.47258 | 36963 ft | 439 kts | 184° |
| 2026-05-08 01:39 | 27.03326 | -97.46752 | 36953 ft | 439 kts | 184° |
| 2026-05-08 01:40 | 26.97325 | -97.46248 | 36932 ft | 439 kts | 184° |
| 2026-05-08 01:40 | 26.91227 | -97.45738 | 36947 ft | 441 kts | 184° |
| 2026-05-08 01:41 | 26.85125 | -97.45225 | 36946 ft | 440 kts | 184° |
| 2026-05-08 01:41 | 26.79008 | -97.44714 | 36946 ft | 441 kts | 184° |
| 2026-05-08 01:42 | 26.72852 | -97.44199 | 36947 ft | 440 kts | 184° |
| 2026-05-08 01:42 | 26.66777 | -97.43693 | 36924 ft | 440 kts | 184° |
| 2026-05-08 01:43 | 26.60670 | -97.43183 | 36937 ft | 440 kts | 184° |
| 2026-05-08 01:43 | 26.54671 | -97.42683 | 36933 ft | 440 kts | 184° |
| 2026-05-08 01:44 | 26.48623 | -97.42180 | 36933 ft | 440 kts | 184° |
| 2026-05-08 01:44 | 26.42528 | -97.41673 | 36932 ft | 440 kts | 184° |
| 2026-05-08 01:45 | 26.36539 | -97.41176 | 36909 ft | 440 kts | 184° |
| 2026-05-08 01:45 | 26.30475 | -97.40673 | 36934 ft | 441 kts | 183° |
| 2026-05-08 01:46 | 26.24405 | -97.40170 | 37265 ft | 443 kts | 183° |
| 2026-05-08 01:46 | 26.21331 | -97.39916 | 37519 ft | 443 kts | 183° |
| 2026-05-08 01:46 | 26.18406 | -97.39673 | 37744 ft | 444 kts | 183° |
| 2026-05-08 01:46 | 26.15356 | -97.39421 | 37937 ft | 443 kts | 183° |
| 2026-05-08 01:47 | 26.12271 | -97.39164 | 37929 ft | 438 kts | 183° |
| 2026-05-08 01:47 | 26.06249 | -97.38667 | 37906 ft | 432 kts | 183° |
| 2026-05-08 01:48 | 25.97293 | -97.37934 | 37918 ft | 430 kts | 186° |
| 2026-05-08 01:48 | 25.94377 | -97.38165 | 37948 ft | 417 kts | 199° |
| 2026-05-08 01:48 | 25.91708 | -97.39083 | 37941 ft | 408 kts | 211° |
| 2026-05-08 01:49 | 25.89255 | -97.40653 | 37941 ft | 400 kts | 222° |
| 2026-05-08 01:49 | 25.87321 | -97.42459 | 37928 ft | 398 kts | 224° |
| 2026-05-08 01:49 | 25.83166 | -97.46498 | 37930 ft | 398 kts | 224° |
| 2026-05-08 01:50 | 25.78887 | -97.50345 | 37959 ft | 402 kts | 214° |
| 2026-05-08 01:50 | 25.73646 | -97.52628 | 37927 ft | 416 kts | 197° |
| 2026-05-08 01:51 | 25.67838 | -97.53318 | 37918 ft | 423 kts | 192° |
| 2026-05-08 01:51 | 25.61982 | -97.53912 | 37918 ft | 423 kts | 192° |
| 2026-05-08 01:52 | 25.56127 | -97.54500 | 37917 ft | 424 kts | 192° |
| 2026-05-08 01:52 | 25.50328 | -97.55081 | 37915 ft | 424 kts | 192° |
| 2026-05-08 01:53 | 25.44548 | -97.55663 | 37899 ft | 424 kts | 192° |
| 2026-05-08 01:53 | 25.38798 | -97.56239 | 37899 ft | 425 kts | 192° |
| 2026-05-08 01:54 | 25.32911 | -97.56892 | 37902 ft | 424 kts | 193° |
| 2026-05-08 01:54 | 25.27028 | -97.57589 | 37903 ft | 424 kts | 193° |
| 2026-05-08 01:55 | 25.21200 | -97.58295 | 37906 ft | 424 kts | 193° |
| 2026-05-08 01:55 | 25.15334 | -97.58999 | 37910 ft | 423 kts | 193° |
| 2026-05-08 01:56 | 25.09536 | -97.59696 | 37895 ft | 424 kts | 193° |
| 2026-05-08 01:56 | 25.03694 | -97.60314 | 37895 ft | 425 kts | 192° |
| 2026-05-08 01:57 | 24.97810 | -97.60889 | 37896 ft | 425 kts | 192° |
| 2026-05-08 01:57 | 24.91931 | -97.61454 | 37902 ft | 425 kts | 192° |
| 2026-05-08 01:58 | 24.86060 | -97.62020 | 37902 ft | 425 kts | 192° |
| 2026-05-08 01:58 | 24.80208 | -97.62584 | 37881 ft | 426 kts | 192° |
| 2026-05-08 01:59 | 24.74274 | -97.63155 | 37899 ft | 431 kts | 191° |
| 2026-05-08 01:59 | 24.68306 | -97.63726 | 37903 ft | 431 kts | 191° |
| 2026-05-08 02:00 | 24.62340 | -97.64300 | 37904 ft | 431 kts | 191° |
| 2026-05-08 02:00 | 24.56383 | -97.64871 | 37903 ft | 431 kts | 191° |
| 2026-05-08 02:01 | 24.50422 | -97.65442 | 37902 ft | 431 kts | 191° |
| 2026-05-08 02:01 | 24.44437 | -97.66015 | 37905 ft | 431 kts | 191° |
| 2026-05-08 02:02 | 24.38465 | -97.66586 | 37905 ft | 431 kts | 191° |
| 2026-05-08 02:02 | 24.32482 | -97.67157 | 37907 ft | 431 kts | 191° |
| 2026-05-08 02:03 | 24.27515 | -97.67631 | 37906 ft | 431 kts | 191° |
| 2026-05-08 02:03 | 24.21527 | -97.68202 | 37907 ft | 431 kts | 191° |
| 2026-05-08 02:04 | 24.15551 | -97.68772 | 37898 ft | 432 kts | 191° |
| 2026-05-08 02:04 | 24.08583 | -97.69435 | 37900 ft | 432 kts | 191° |
| 2026-05-08 02:05 | 24.02586 | -97.70005 | 37901 ft | 432 kts | 191° |
| 2026-05-08 02:05 | 23.97611 | -97.70478 | 37902 ft | 432 kts | 191° |
| 2026-05-08 02:06 | 23.91652 | -97.71043 | 37900 ft | 433 kts | 191° |
| 2026-05-08 02:06 | 23.85657 | -97.71612 | 37903 ft | 432 kts | 190° |
| 2026-05-08 02:07 | 23.79664 | -97.72179 | 37896 ft | 432 kts | 190° |
| 2026-05-08 02:07 | 23.73669 | -97.72747 | 37905 ft | 432 kts | 190° |
| 2026-05-08 02:08 | 23.67679 | -97.73313 | 37901 ft | 432 kts | 190° |
| 2026-05-08 02:08 | 23.61696 | -97.73879 | 37898 ft | 432 kts | 190° |
| 2026-05-08 02:09 | 23.55708 | -97.74444 | 37901 ft | 432 kts | 190° |
| 2026-05-08 02:09 | 23.49699 | -97.75011 | 37898 ft | 434 kts | 190° |
| 2026-05-08 02:10 | 23.43674 | -97.75578 | 37901 ft | 434 kts | 190° |
| 2026-05-08 02:10 | 23.37701 | -97.76141 | 37898 ft | 434 kts | 190° |
| 2026-05-08 02:11 | 23.31701 | -97.76705 | 37899 ft | 434 kts | 190° |
| 2026-05-08 02:11 | 23.25732 | -97.77266 | 37894 ft | 434 kts | 190° |
| 2026-05-08 02:12 | 23.19743 | -97.77828 | 37886 ft | 436 kts | 190° |
| 2026-05-08 02:12 | 23.13734 | -97.78393 | 37883 ft | 436 kts | 190° |
| 2026-05-08 02:13 | 23.07694 | -97.78960 | 37886 ft | 437 kts | 190° |
| 2026-05-08 02:13 | 23.01653 | -97.79527 | 37883 ft | 437 kts | 190° |
| 2026-05-08 02:14 | 22.95611 | -97.80093 | 37887 ft | 437 kts | 190° |
| 2026-05-08 02:14 | 22.89582 | -97.80658 | 37886 ft | 437 kts | 190° |
| 2026-05-08 02:15 | 22.83520 | -97.81225 | 37884 ft | 438 kts | 190° |
| 2026-05-08 02:15 | 22.77451 | -97.81793 | 37883 ft | 439 kts | 190° |
| 2026-05-08 02:16 | 22.71380 | -97.82360 | 37882 ft | 439 kts | 190° |
| 2026-05-08 02:16 | 22.65427 | -97.82915 | 37879 ft | 439 kts | 190° |
| 2026-05-08 02:17 | 22.59470 | -97.83469 | 37883 ft | 439 kts | 190° |
| 2026-05-08 02:17 | 22.53579 | -97.84017 | 37872 ft | 437 kts | 190° |
| 2026-05-08 02:18 | 22.47427 | -97.84589 | 37876 ft | 436 kts | 190° |
| 2026-05-08 02:18 | 22.41422 | -97.85146 | 37883 ft | 436 kts | 190° |
| 2026-05-08 02:19 | 22.35341 | -97.85711 | 37883 ft | 436 kts | 190° |
| 2026-05-08 02:19 | 22.29340 | -97.86267 | 37881 ft | 436 kts | 189° |
| 2026-05-08 02:20 | 22.23238 | -97.86648 | 37885 ft | 436 kts | 188° |
| 2026-05-08 02:20 | 22.17178 | -97.87031 | 37883 ft | 436 kts | 188° |
| 2026-05-08 02:21 | 22.11137 | -97.87397 | 37881 ft | 436 kts | 188° |
| 2026-05-08 02:21 | 22.05115 | -97.87770 | 37877 ft | 436 kts | 188° |
| 2026-05-08 02:22 | 21.99071 | -97.88140 | 37874 ft | 436 kts | 188° |
| 2026-05-08 02:22 | 21.92965 | -97.88515 | 37863 ft | 436 kts | 188° |
| 2026-05-08 02:23 | 21.86910 | -97.88886 | 37868 ft | 436 kts | 188° |
| 2026-05-08 02:23 | 21.80852 | -97.89257 | 37870 ft | 436 kts | 188° |
| 2026-05-08 02:24 | 21.74802 | -97.89627 | 37869 ft | 436 kts | 188° |
| 2026-05-08 02:24 | 21.68785 | -97.89995 | 37863 ft | 436 kts | 188° |
| 2026-05-08 02:25 | 21.62731 | -97.90364 | 37861 ft | 436 kts | 188° |
| 2026-05-08 02:25 | 21.56683 | -97.90733 | 37855 ft | 435 kts | 187° |
| 2026-05-08 02:26 | 21.50645 | -97.91102 | 37858 ft | 434 kts | 187° |
| 2026-05-08 02:26 | 21.44630 | -97.91574 | 37879 ft | 431 kts | 194° |
| 2026-05-08 02:27 | 21.38750 | -97.92699 | 37870 ft | 431 kts | 193° |
| 2026-05-08 02:27 | 21.32845 | -97.93811 | 37874 ft | 431 kts | 194° |
| 2026-05-08 02:28 | 21.26938 | -97.94936 | 37877 ft | 431 kts | 193° |
| 2026-05-08 02:28 | 21.21026 | -97.96053 | 37882 ft | 431 kts | 193° |
| 2026-05-08 02:29 | 21.15140 | -97.97169 | 37885 ft | 431 kts | 193° |
| 2026-05-08 02:29 | 21.09235 | -97.98286 | 37865 ft | 437 kts | 193° |
| 2026-05-08 02:30 | 21.03263 | -97.99414 | 37886 ft | 437 kts | 193° |
| 2026-05-08 02:30 | 20.97264 | -98.00548 | 37881 ft | 438 kts | 193° |
| 2026-05-08 02:31 | 20.91274 | -98.01677 | 37883 ft | 436 kts | 193° |
| 2026-05-08 02:31 | 20.85314 | -98.02801 | 37881 ft | 435 kts | 193° |
| 2026-05-08 02:32 | 20.79391 | -98.03917 | 37889 ft | 434 kts | 193° |
| 2026-05-08 02:32 | 20.73448 | -98.05036 | 37895 ft | 434 kts | 193° |
| 2026-05-08 02:33 | 20.67576 | -98.06141 | 37911 ft | 434 kts | 193° |
| 2026-05-08 02:33 | 20.61595 | -98.07265 | 37912 ft | 434 kts | 192° |
| 2026-05-08 02:34 | 20.55709 | -98.08370 | 37913 ft | 434 kts | 192° |
| 2026-05-08 02:34 | 20.49777 | -98.09483 | 37936 ft | 434 kts | 192° |
| 2026-05-08 02:35 | 20.43877 | -98.10589 | 37677 ft | 430 kts | 192° |
| 2026-05-08 02:35 | 20.40959 | -98.11136 | 37168 ft | 430 kts | 192° |
| 2026-05-08 02:35 | 20.38014 | -98.11688 | 36635 ft | 430 kts | 192° |
| 2026-05-08 02:36 | 20.35073 | -98.12239 | 36109 ft | 430 kts | 192° |
| 2026-05-08 02:36 | 20.32142 | -98.12787 | 35565 ft | 430 kts | 192° |
| 2026-05-08 02:36 | 20.29232 | -98.13332 | 35026 ft | 431 kts | 192° |
| 2026-05-08 02:36 | 20.26317 | -98.13877 | 34521 ft | 431 kts | 192° |
| 2026-05-08 02:37 | 20.23331 | -98.14436 | 33954 ft | 432 kts | 192° |
| 2026-05-08 02:37 | 20.20389 | -98.14985 | 33372 ft | 431 kts | 192° |
| 2026-05-08 02:37 | 20.17458 | -98.15533 | 32828 ft | 429 kts | 192° |
| 2026-05-08 02:37 | 20.14519 | -98.16082 | 32313 ft | 428 kts | 191° |
| 2026-05-08 02:38 | 20.11637 | -98.16620 | 31772 ft | 427 kts | 191° |
| 2026-05-08 02:38 | 20.08736 | -98.17161 | 31229 ft | 426 kts | 191° |
| 2026-05-08 02:38 | 20.05863 | -98.17697 | 30670 ft | 420 kts | 192° |
| 2026-05-08 02:38 | 20.03175 | -98.18764 | 30235 ft | 409 kts | 214° |
| 2026-05-08 02:39 | 20.01212 | -98.20807 | 30114 ft | 400 kts | 238° |
| 2026-05-08 02:39 | 20.00213 | -98.23550 | 30146 ft | 404 kts | 258° |
| 2026-05-08 02:39 | 19.99673 | -98.29443 | 30102 ft | 403 kts | 263° |
| 2026-05-08 02:40 | 19.98808 | -98.35257 | 30106 ft | 400 kts | 253° |
| 2026-05-08 02:40 | 19.97459 | -98.40971 | 30107 ft | 401 kts | 256° |
| 2026-05-08 02:41 | 19.96394 | -98.46723 | 30109 ft | 401 kts | 255° |
| 2026-05-08 02:41 | 19.95173 | -98.52506 | 30090 ft | 401 kts | 255° |
| 2026-05-08 02:42 | 19.94589 | -98.55414 | 29765 ft | 404 kts | 255° |
| 2026-05-08 02:42 | 19.94020 | -98.58285 | 29250 ft | 403 kts | 255° |
| 2026-05-08 02:42 | 19.93437 | -98.61150 | 29108 ft | 396 kts | 255° |
| 2026-05-08 02:42 | 19.92868 | -98.63910 | 28846 ft | 401 kts | 255° |
| 2026-05-08 02:43 | 19.92276 | -98.66806 | 28322 ft | 400 kts | 256° |
| 2026-05-08 02:43 | 19.91712 | -98.69589 | 27835 ft | 400 kts | 256° |
| 2026-05-08 02:43 | 19.91127 | -98.72467 | 27351 ft | 399 kts | 255° |
| 2026-05-08 02:43 | 19.90663 | -98.75362 | 27150 ft | 394 kts | 261° |
| 2026-05-08 02:44 | 19.90356 | -98.78231 | 26838 ft | 391 kts | 261° |
| 2026-05-08 02:44 | 19.90042 | -98.81078 | 26470 ft | 389 kts | 261° |
| 2026-05-08 02:44 | 19.89725 | -98.83887 | 26099 ft | 387 kts | 261° |
| 2026-05-08 02:44 | 19.89404 | -98.86751 | 25718 ft | 385 kts | 261° |
| 2026-05-08 02:45 | 19.89103 | -98.89530 | 25364 ft | 383 kts | 263° |
| 2026-05-08 02:45 | 19.89164 | -98.92359 | 25007 ft | 383 kts | 271° |
| 2026-05-08 02:45 | 19.89366 | -98.95155 | 24636 ft | 381 kts | 271° |
| 2026-05-08 02:45 | 19.89562 | -98.97936 | 24273 ft | 379 kts | 271° |
| 2026-05-08 02:46 | 19.89745 | -99.00699 | 23915 ft | 377 kts | 271° |
| 2026-05-08 02:46 | 19.89925 | -99.03454 | 23500 ft | 375 kts | 271° |
| 2026-05-08 02:46 | 19.90109 | -99.06184 | 23069 ft | 373 kts | 271° |
| 2026-05-08 02:46 | 19.90294 | -99.08902 | 22645 ft | 371 kts | 271° |
| 2026-05-08 02:47 | 19.90477 | -99.11634 | 22253 ft | 369 kts | 272° |
| 2026-05-08 02:47 | 19.90655 | -99.14320 | 21997 ft | 362 kts | 272° |
| 2026-05-08 02:47 | 19.90815 | -99.16715 | 21862 ft | 350 kts | 272° |
| 2026-05-08 02:47 | 19.90986 | -99.19275 | 21633 ft | 343 kts | 272° |
| 2026-05-08 02:48 | 19.91150 | -99.21752 | 21252 ft | 334 kts | 272° |
| 2026-05-08 02:48 | 19.91310 | -99.24175 | 20826 ft | 327 kts | 272° |
| 2026-05-08 02:48 | 19.91465 | -99.26534 | 20411 ft | 321 kts | 272° |
| 2026-05-08 02:48 | 19.91576 | -99.28847 | 19995 ft | 313 kts | 263° |
| 2026-05-08 02:49 | 19.91165 | -99.31071 | 19635 ft | 305 kts | 254° |
| 2026-05-08 02:49 | 19.90629 | -99.33240 | 19241 ft | 301 kts | 254° |
| 2026-05-08 02:49 | 19.90093 | -99.35357 | 18859 ft | 297 kts | 250° |
| 2026-05-08 02:49 | 19.89004 | -99.37160 | 18580 ft | 296 kts | 218° |
| 2026-05-08 02:50 | 19.87178 | -99.38076 | 18323 ft | 299 kts | 187° |
| 2026-05-08 02:50 | 19.85207 | -99.37861 | 18056 ft | 302 kts | 157° |
| 2026-05-08 02:50 | 19.83371 | -99.36716 | 17747 ft | 305 kts | 146° |
| 2026-05-08 02:50 | 19.81642 | -99.35425 | 17407 ft | 306 kts | 148° |
| 2026-05-08 02:51 | 19.79843 | -99.34260 | 17056 ft | 308 kts | 153° |
| 2026-05-08 02:51 | 19.77883 | -99.33333 | 16701 ft | 308 kts | 163° |
| 2026-05-08 02:51 | 19.75820 | -99.32801 | 16343 ft | 308 kts | 171° |
| 2026-05-08 02:51 | 19.73720 | -99.32429 | 15996 ft | 309 kts | 171° |
| 2026-05-08 02:52 | 19.71664 | -99.31995 | 15653 ft | 308 kts | 168° |
| 2026-05-08 02:52 | 19.69586 | -99.31455 | 15284 ft | 300 kts | 167° |
| 2026-05-08 02:52 | 19.67641 | -99.30957 | 14867 ft | 284 kts | 168° |
| 2026-05-08 02:52 | 19.66374 | -99.30654 | 14615 ft | 275 kts | 168° |
| 2026-05-08 02:53 | 19.64085 | -99.30115 | 14141 ft | 263 kts | 168° |
| 2026-05-08 02:53 | 19.62887 | -99.29826 | 13982 ft | 257 kts | 168° |
| 2026-05-08 02:53 | 19.61142 | -99.29402 | 13848 ft | 261 kts | 168° |
| 2026-05-08 02:53 | 19.58925 | -99.28447 | 13762 ft | 264 kts | 147° |
| 2026-05-08 02:54 | 19.57468 | -99.27301 | 13519 ft | 261 kts | 142° |
| 2026-05-08 02:54 | 19.56521 | -99.26506 | 13344 ft | 253 kts | 143° |
| 2026-05-08 02:54 | 19.55150 | -99.25405 | 13073 ft | 245 kts | 145° |
| 2026-05-08 02:54 | 19.53781 | -99.24354 | 12797 ft | 242 kts | 146° |
| 2026-05-08 02:55 | 19.52298 | -99.23578 | 12522 ft | 237 kts | 170° |
| 2026-05-08 02:55 | 19.49041 | -99.23458 | 12406 ft | 228 kts | 180° |
| 2026-05-08 02:55 | 19.47465 | -99.23442 | 12163 ft | 224 kts | 179° |
| 2026-05-08 02:56 | 19.45939 | -99.23414 | 11894 ft | 215 kts | 178° |
| 2026-05-08 02:56 | 19.44450 | -99.23385 | 11654 ft | 215 kts | 178° |
| 2026-05-08 02:56 | 19.42950 | -99.23359 | 11411 ft | 215 kts | 178° |
| 2026-05-08 02:56 | 19.41465 | -99.23334 | 10979 ft | 216 kts | 179° |
| 2026-05-08 02:57 | 19.39953 | -99.23342 | 10489 ft | 215 kts | 162° |
| 2026-05-08 02:57 | 19.38661 | -99.22626 | 10046 ft | 214 kts | 139° |
| 2026-05-08 02:57 | 19.37705 | -99.21452 | 9638 ft | 212 kts | 118° |
| 2026-05-08 02:57 | 19.37231 | -99.19994 | 9309 ft | 209 kts | 96° |
| 2026-05-08 02:58 | 19.37304 | -99.18494 | 9031 ft | 202 kts | 73° |
| 2026-05-08 02:58 | 19.37854 | -99.17186 | 8911 ft | 194 kts | 58° |
| 2026-05-08 02:58 | 19.38540 | -99.16004 | 8904 ft | 196 kts | 59° |
| 2026-05-08 02:58 | 19.39258 | -99.14747 | 8892 ft | 190 kts | 58° |
| 2026-05-08 02:59 | 19.39904 | -99.13596 | 8733 ft | 178 kts | 59° |
| 2026-05-08 02:59 | 19.40516 | -99.12500 | 8451 ft | 170 kts | 59° |
| 2026-05-08 02:59 | 19.41089 | -99.11473 | 8107 ft | 163 kts | 58° |
| 2026-05-08 02:59 | 19.41677 | -99.10415 | 7786 ft | 166 kts | 56° |
| 2026-05-08 03:00 | 19.42216 | -99.09487 | 7645 ft | 172 kts | 57° |
| 2026-05-08 03:00 | 19.42829 | -99.08363 | 7369 ft | 177 kts | 58° |
| 2026-05-08 03:00 | 19.43361 | -99.07432 | 7304 ft | 129 kts | 58° |
| 2026-05-08 03:00 | 19.43737 | -99.06736 | 7304 ft | 94 kts | 59° |
| 2026-05-08 03:01 | 19.43991 | -99.06284 | 7302 ft | 45 kts | 59° |
| 2026-05-08 03:01 | 19.44118 | -99.06058 | 7302 ft | 32 kts | 59° |
| 2026-05-08 03:01 | 19.44251 | -99.05934 | 7302 ft | 19 kts | 5° |
| 2026-05-08 03:01 | 19.44306 | -99.05988 | 7302 ft | 9 kts | 295° |
| 2026-05-08 03:02 | 19.44330 | -99.06046 | 7302 ft | 7 kts | 292° |
| 2026-05-08 03:02 | 19.44332 | -99.06053 | 7302 ft | 0 kts | 292° |
| 2026-05-08 03:02 | 19.44337 | -99.06064 | 7302 ft | 6 kts | 292° |
| 2026-05-08 03:02 | 19.44364 | -99.06136 | 7302 ft | 15 kts | 291° |
| 2026-05-08 03:03 | 19.44408 | -99.06252 | 7303 ft | 17 kts | 291° |
| 2026-05-08 03:03 | 19.44425 | -99.06295 | 7303 ft | 0 kts | 292° |
| 2026-05-08 03:04 | 19.44422 | -99.06306 | 7303 ft | 4 kts | 253° |
| 2026-05-08 03:04 | 19.44404 | -99.06354 | 7303 ft | 10 kts | 244° |
| 2026-05-08 03:04 | 19.44363 | -99.06428 | 7304 ft | 16 kts | 239° |
| 2026-05-08 03:04 | 19.44294 | -99.06550 | 7304 ft | 22 kts | 238° |
| 2026-05-08 03:05 | 19.44211 | -99.06695 | 7304 ft | 27 kts | 239° |
| 2026-05-08 03:05 | 19.44114 | -99.06869 | 7305 ft | 29 kts | 239° |
| 2026-05-08 03:05 | 19.44017 | -99.07044 | 7305 ft | 27 kts | 239° |
| 2026-05-08 03:05 | 19.43927 | -99.07204 | 7304 ft | 24 kts | 240° |
| 2026-05-08 03:06 | 19.43844 | -99.07351 | 7304 ft | 22 kts | 238° |
| 2026-05-08 03:06 | 19.43772 | -99.07478 | 7303 ft | 20 kts | 239° |
| 2026-05-08 03:06 | 19.43706 | -99.07596 | 7303 ft | 18 kts | 239° |
| 2026-05-08 03:06 | 19.43673 | -99.07672 | 7303 ft | 5 kts | 274° |
| 2026-05-08 03:07 | 19.43682 | -99.07692 | 7303 ft | 2 kts | 305° |
| 2026-05-08 03:07 | 19.43687 | -99.07698 | 7303 ft | 1 kts | 318° |
| 2026-05-08 03:07 | 19.43690 | -99.07701 | 7303 ft | 1 kts | 318° |
| 2026-05-08 03:07 | 19.43698 | -99.07708 | 7303 ft | 2 kts | 318° |
| 2026-05-08 03:08 | 19.43709 | -99.07718 | 7303 ft | 2 kts | 318° |
| 2026-05-08 03:08 | 19.43712 | -99.07721 | 7303 ft | 0 kts | 318° |